sensor_id;sensor_type;location;lat;lon;timestamp;P1;durP1;ratioP1;P2;durP2;ratioP2
24357;SDS011;13668;52.154;5.580;2023-04-08T00:00:36;13.82;;;11.35;;
24357;SDS011;13668;52.154;5.580;2023-04-08T00:03:02;16.08;;;11.18;;
24357;SDS011;13668;52.154;5.580;2023-04-08T00:05:28;24.67;;;11.43;;
24357;SDS011;13668;52.154;5.580;2023-04-08T00:07:54;17.40;;;11.55;;
24357;SDS011;13668;52.154;5.580;2023-04-08T00:10:20;20.40;;;11.50;;
24357;SDS011;13668;52.154;5.580;2023-04-08T00:12:46;14.30;;;10.40;;
24357;SDS011;13668;52.154;5.580;2023-04-08T00:15:13;15.02;;;10.80;;
24357;SDS011;13668;52.154;5.580;2023-04-08T00:17:39;13.63;;;10.73;;
24357;SDS011;13668;52.154;5.580;2023-04-08T00:20:06;14.90;;;12.27;;
24357;SDS011;13668;52.154;5.580;2023-04-08T00:22:32;25.58;;;12.63;;
24357;SDS011;13668;52.154;5.580;2023-04-08T00:24:58;12.93;;;10.95;;
24357;SDS011;13668;52.154;5.580;2023-04-08T00:27:24;17.85;;;11.88;;
24357;SDS011;13668;52.154;5.580;2023-04-08T00:29:50;14.40;;;11.43;;
24357;SDS011;13668;52.154;5.580;2023-04-08T00:32:16;14.25;;;11.35;;
24357;SDS011;13668;52.154;5.580;2023-04-08T00:34:42;14.82;;;10.88;;
24357;SDS011;13668;52.154;5.580;2023-04-08T00:37:08;14.82;;;10.10;;
24357;SDS011;13668;52.154;5.580;2023-04-08T00:39:35;20.20;;;9.93;;
24357;SDS011;13668;52.154;5.580;2023-04-08T00:42:01;11.82;;;9.55;;
24357;SDS011;13668;52.154;5.580;2023-04-08T00:44:27;20.30;;;9.35;;
24357;SDS011;13668;52.154;5.580;2023-04-08T00:46:53;11.25;;;8.70;;
24357;SDS011;13668;52.154;5.580;2023-04-08T00:49:19;14.05;;;10.70;;
24357;SDS011;13668;52.154;5.580;2023-04-08T00:51:45;13.38;;;9.65;;
24357;SDS011;13668;52.154;5.580;2023-04-08T00:54:11;11.43;;;9.95;;
24357;SDS011;13668;52.154;5.580;2023-04-08T00:56:37;9.88;;;8.82;;
24357;SDS011;13668;52.154;5.580;2023-04-08T00:59:03;10.85;;;9.75;;
24357;SDS011;13668;52.154;5.580;2023-04-08T01:04:25;11.15;;;9.65;;
24357;SDS011;13668;52.154;5.580;2023-04-08T01:06:58;20.58;;;11.82;;
24357;SDS011;13668;52.154;5.580;2023-04-08T01:09:27;17.85;;;9.95;;
24357;SDS011;13668;52.154;5.580;2023-04-08T01:11:54;13.25;;;10.77;;
24357;SDS011;13668;52.154;5.580;2023-04-08T01:14:23;19.25;;;11.15;;
24357;SDS011;13668;52.154;5.580;2023-04-08T01:16:52;17.73;;;11.45;;
24357;SDS011;13668;52.154;5.580;2023-04-08T01:19:26;12.57;;;10.85;;
24357;SDS011;13668;52.154;5.580;2023-04-08T01:21:52;13.30;;;11.10;;
24357;SDS011;13668;52.154;5.580;2023-04-08T01:24:25;12.90;;;10.68;;
24357;SDS011;13668;52.154;5.580;2023-04-08T01:26:53;13.63;;;10.73;;
24357;SDS011;13668;52.154;5.580;2023-04-08T01:29:21;18.17;;;10.20;;
24357;SDS011;13668;52.154;5.580;2023-04-08T01:31:47;14.65;;;10.63;;
24357;SDS011;13668;52.154;5.580;2023-04-08T01:34:14;19.17;;;12.27;;
24357;SDS011;13668;52.154;5.580;2023-04-08T01:36:40;17.08;;;11.60;;
24357;SDS011;13668;52.154;5.580;2023-04-08T01:39:08;18.10;;;11.88;;
24357;SDS011;13668;52.154;5.580;2023-04-08T01:41:35;16.13;;;11.95;;
24357;SDS011;13668;52.154;5.580;2023-04-08T01:44:02;12.88;;;10.88;;
24357;SDS011;13668;52.154;5.580;2023-04-08T01:46:28;15.63;;;11.75;;
24357;SDS011;13668;52.154;5.580;2023-04-08T01:48:55;19.02;;;13.40;;
24357;SDS011;13668;52.154;5.580;2023-04-08T01:51:22;16.63;;;12.20;;
24357;SDS011;13668;52.154;5.580;2023-04-08T01:53:48;15.10;;;12.13;;
24357;SDS011;13668;52.154;5.580;2023-04-08T01:56:14;18.60;;;13.25;;
24357;SDS011;13668;52.154;5.580;2023-04-08T01:58:45;19.48;;;12.77;;
24357;SDS011;13668;52.154;5.580;2023-04-08T02:01:14;18.30;;;11.40;;
24357;SDS011;13668;52.154;5.580;2023-04-08T02:03:42;16.95;;;12.52;;
24357;SDS011;13668;52.154;5.580;2023-04-08T02:06:08;16.23;;;13.45;;
24357;SDS011;13668;52.154;5.580;2023-04-08T02:08:35;15.60;;;12.25;;
24357;SDS011;13668;52.154;5.580;2023-04-08T02:11:01;14.48;;;11.65;;
24357;SDS011;13668;52.154;5.580;2023-04-08T02:13:28;33.13;;;13.02;;
24357;SDS011;13668;52.154;5.580;2023-04-08T02:15:56;16.45;;;12.70;;
24357;SDS011;13668;52.154;5.580;2023-04-08T02:18:24;15.70;;;11.27;;
24357;SDS011;13668;52.154;5.580;2023-04-08T02:23:36;14.77;;;11.82;;
24357;SDS011;13668;52.154;5.580;2023-04-08T02:26:03;14.55;;;11.57;;
24357;SDS011;13668;52.154;5.580;2023-04-08T02:28:29;13.10;;;11.40;;
24357;SDS011;13668;52.154;5.580;2023-04-08T02:30:55;18.52;;;12.38;;
24357;SDS011;13668;52.154;5.580;2023-04-08T02:33:23;18.60;;;11.77;;
24357;SDS011;13668;52.154;5.580;2023-04-08T02:35:49;16.20;;;12.80;;
24357;SDS011;13668;52.154;5.580;2023-04-08T02:38:18;15.77;;;12.13;;
24357;SDS011;13668;52.154;5.580;2023-04-08T02:40:44;17.05;;;11.90;;
24357;SDS011;13668;52.154;5.580;2023-04-08T02:43:10;16.65;;;12.63;;
24357;SDS011;13668;52.154;5.580;2023-04-08T02:45:37;15.45;;;12.13;;
24357;SDS011;13668;52.154;5.580;2023-04-08T02:48:05;15.68;;;12.63;;
24357;SDS011;13668;52.154;5.580;2023-04-08T02:50:31;15.95;;;12.35;;
24357;SDS011;13668;52.154;5.580;2023-04-08T02:52:57;16.23;;;12.98;;
24357;SDS011;13668;52.154;5.580;2023-04-08T02:55:23;16.00;;;12.98;;
24357;SDS011;13668;52.154;5.580;2023-04-08T02:57:49;15.55;;;12.10;;
24357;SDS011;13668;52.154;5.580;2023-04-08T03:00:15;16.83;;;11.95;;
24357;SDS011;13668;52.154;5.580;2023-04-08T03:02:41;26.85;;;12.45;;
24357;SDS011;13668;52.154;5.580;2023-04-08T03:05:07;14.48;;;11.90;;
24357;SDS011;13668;52.154;5.580;2023-04-08T03:07:34;16.08;;;12.30;;
24357;SDS011;13668;52.154;5.580;2023-04-08T03:10:00;13.18;;;10.73;;
24357;SDS011;13668;52.154;5.580;2023-04-08T03:12:26;12.95;;;10.07;;
24357;SDS011;13668;52.154;5.580;2023-04-08T03:14:52;20.98;;;10.30;;
24357;SDS011;13668;52.154;5.580;2023-04-08T03:17:18;13.65;;;10.10;;
24357;SDS011;13668;52.154;5.580;2023-04-08T03:19:45;11.07;;;9.60;;
24357;SDS011;13668;52.154;5.580;2023-04-08T03:22:11;9.48;;;8.50;;
24357;SDS011;13668;52.154;5.580;2023-04-08T03:24:37;12.10;;;8.55;;
24357;SDS011;13668;52.154;5.580;2023-04-08T03:27:03;8.55;;;7.65;;
24357;SDS011;13668;52.154;5.580;2023-04-08T03:29:30;8.75;;;7.95;;
24357;SDS011;13668;52.154;5.580;2023-04-08T03:31:56;8.88;;;7.97;;
24357;SDS011;13668;52.154;5.580;2023-04-08T03:34:22;8.48;;;7.68;;
24357;SDS011;13668;52.154;5.580;2023-04-08T03:36:48;9.13;;;8.18;;
24357;SDS011;13668;52.154;5.580;2023-04-08T03:39:13;10.13;;;9.02;;
24357;SDS011;13668;52.154;5.580;2023-04-08T03:41:39;13.80;;;8.23;;
24357;SDS011;13668;52.154;5.580;2023-04-08T03:44:05;12.57;;;8.85;;
24357;SDS011;13668;52.154;5.580;2023-04-08T03:46:31;9.65;;;8.65;;
24357;SDS011;13668;52.154;5.580;2023-04-08T03:48:57;8.90;;;7.63;;
24357;SDS011;13668;52.154;5.580;2023-04-08T03:51:23;8.55;;;7.75;;
24357;SDS011;13668;52.154;5.580;2023-04-08T03:53:49;10.10;;;7.57;;
24357;SDS011;13668;52.154;5.580;2023-04-08T03:56:15;7.70;;;6.97;;
24357;SDS011;13668;52.154;5.580;2023-04-08T03:58:41;8.88;;;7.07;;
24357;SDS011;13668;52.154;5.580;2023-04-08T04:01:07;7.38;;;6.68;;
24357;SDS011;13668;52.154;5.580;2023-04-08T04:03:33;8.25;;;7.03;;
24357;SDS011;13668;52.154;5.580;2023-04-08T04:05:59;7.00;;;6.40;;
24357;SDS011;13668;52.154;5.580;2023-04-08T04:08:25;6.78;;;6.18;;
24357;SDS011;13668;52.154;5.580;2023-04-08T04:10:51;7.15;;;6.45;;
24357;SDS011;13668;52.154;5.580;2023-04-08T04:13:17;6.28;;;5.68;;
24357;SDS011;13668;52.154;5.580;2023-04-08T04:15:43;6.57;;;5.88;;
24357;SDS011;13668;52.154;5.580;2023-04-08T04:18:09;6.82;;;6.22;;
24357;SDS011;13668;52.154;5.580;2023-04-08T04:20:38;7.30;;;6.60;;
24357;SDS011;13668;52.154;5.580;2023-04-08T04:23:04;7.53;;;6.82;;
24357;SDS011;13668;52.154;5.580;2023-04-08T04:25:30;6.88;;;6.18;;
24357;SDS011;13668;52.154;5.580;2023-04-08T04:27:56;7.70;;;6.90;;
24357;SDS011;13668;52.154;5.580;2023-04-08T04:30:22;7.15;;;6.45;;
24357;SDS011;13668;52.154;5.580;2023-04-08T04:32:48;7.10;;;6.40;;
24357;SDS011;13668;52.154;5.580;2023-04-08T04:35:14;7.57;;;6.88;;
24357;SDS011;13668;52.154;5.580;2023-04-08T04:37:40;7.65;;;6.85;;
24357;SDS011;13668;52.154;5.580;2023-04-08T04:40:06;8.90;;;6.75;;
24357;SDS011;13668;52.154;5.580;2023-04-08T04:42:32;7.72;;;7.03;;
24357;SDS011;13668;52.154;5.580;2023-04-08T04:44:58;8.02;;;7.22;;
24357;SDS011;13668;52.154;5.580;2023-04-08T04:47:24;7.40;;;6.70;;
24357;SDS011;13668;52.154;5.580;2023-04-08T04:49:50;7.22;;;6.60;;
24357;SDS011;13668;52.154;5.580;2023-04-08T04:52:16;7.20;;;6.50;;
24357;SDS011;13668;52.154;5.580;2023-04-08T04:54:42;7.28;;;6.57;;
24357;SDS011;13668;52.154;5.580;2023-04-08T04:57:08;7.07;;;6.38;;
24357;SDS011;13668;52.154;5.580;2023-04-08T04:59:35;7.30;;;6.70;;
24357;SDS011;13668;52.154;5.580;2023-04-08T05:02:01;7.43;;;6.53;;
24357;SDS011;13668;52.154;5.580;2023-04-08T05:04:27;7.72;;;6.93;;
24357;SDS011;13668;52.154;5.580;2023-04-08T05:06:53;7.03;;;6.32;;
24357;SDS011;13668;52.154;5.580;2023-04-08T05:09:19;7.22;;;5.68;;
24357;SDS011;13668;52.154;5.580;2023-04-08T05:11:45;6.65;;;6.00;;
24357;SDS011;13668;52.154;5.580;2023-04-08T05:14:11;6.95;;;6.35;;
24357;SDS011;13668;52.154;5.580;2023-04-08T05:16:38;7.57;;;6.78;;
24357;SDS011;13668;52.154;5.580;2023-04-08T05:19:04;6.90;;;6.30;;
24357;SDS011;13668;52.154;5.580;2023-04-08T05:21:30;6.50;;;5.85;;
24357;SDS011;13668;52.154;5.580;2023-04-08T05:23:56;5.72;;;5.22;;
24357;SDS011;13668;52.154;5.580;2023-04-08T05:26:22;7.28;;;5.28;;
24357;SDS011;13668;52.154;5.580;2023-04-08T05:28:48;5.20;;;4.75;;
24357;SDS011;13668;52.154;5.580;2023-04-08T05:31:18;4.90;;;4.40;;
24357;SDS011;13668;52.154;5.580;2023-04-08T05:33:44;4.78;;;4.38;;
24357;SDS011;13668;52.154;5.580;2023-04-08T05:36:10;6.43;;;4.45;;
24357;SDS011;13668;52.154;5.580;2023-04-08T05:38:37;4.10;;;3.70;;
24357;SDS011;13668;52.154;5.580;2023-04-08T05:41:03;3.80;;;3.50;;
24357;SDS011;13668;52.154;5.580;2023-04-08T05:43:31;4.90;;;4.50;;
24357;SDS011;13668;52.154;5.580;2023-04-08T05:45:57;5.40;;;5.00;;
24357;SDS011;13668;52.154;5.580;2023-04-08T05:48:23;5.40;;;5.00;;
24357;SDS011;13668;52.154;5.580;2023-04-08T05:50:49;5.47;;;4.97;;
24357;SDS011;13668;52.154;5.580;2023-04-08T05:53:15;6.05;;;5.55;;
24357;SDS011;13668;52.154;5.580;2023-04-08T05:55:41;5.90;;;5.40;;
24357;SDS011;13668;52.154;5.580;2023-04-08T05:58:07;6.55;;;5.85;;
24357;SDS011;13668;52.154;5.580;2023-04-08T06:00:33;5.35;;;4.95;;
24357;SDS011;13668;52.154;5.580;2023-04-08T06:02:59;7.82;;;5.15;;
24357;SDS011;13668;52.154;5.580;2023-04-08T06:05:25;6.28;;;5.78;;
24357;SDS011;13668;52.154;5.580;2023-04-08T06:07:51;6.90;;;6.10;;
24357;SDS011;13668;52.154;5.580;2023-04-08T06:10:17;6.60;;;6.00;;
24357;SDS011;13668;52.154;5.580;2023-04-08T06:12:43;7.28;;;6.57;;
24357;SDS011;13668;52.154;5.580;2023-04-08T06:15:10;7.35;;;6.65;;
24357;SDS011;13668;52.154;5.580;2023-04-08T06:17:36;8.70;;;7.80;;
24357;SDS011;13668;52.154;5.580;2023-04-08T06:20:02;7.90;;;7.20;;
24357;SDS011;13668;52.154;5.580;2023-04-08T06:22:28;9.13;;;8.00;;
24357;SDS011;13668;52.154;5.580;2023-04-08T06:24:54;9.23;;;7.30;;
24357;SDS011;13668;52.154;5.580;2023-04-08T06:27:20;10.18;;;8.85;;
24357;SDS011;13668;52.154;5.580;2023-04-08T06:29:46;10.27;;;8.65;;
24357;SDS011;13668;52.154;5.580;2023-04-08T06:32:13;10.68;;;8.98;;
24357;SDS011;13668;52.154;5.580;2023-04-08T06:34:39;11.38;;;10.18;;
24357;SDS011;13668;52.154;5.580;2023-04-08T06:37:06;12.80;;;11.38;;
24357;SDS011;13668;52.154;5.580;2023-04-08T06:39:32;13.27;;;10.02;;
24357;SDS011;13668;52.154;5.580;2023-04-08T06:41:58;15.05;;;11.02;;
24357;SDS011;13668;52.154;5.580;2023-04-08T06:44:24;13.50;;;11.75;;
24357;SDS011;13668;52.154;5.580;2023-04-08T06:46:50;12.85;;;11.35;;
24357;SDS011;13668;52.154;5.580;2023-04-08T06:49:16;12.88;;;9.77;;
24357;SDS011;13668;52.154;5.580;2023-04-08T06:51:42;11.45;;;9.18;;
24357;SDS011;13668;52.154;5.580;2023-04-08T06:54:08;9.68;;;8.48;;
24357;SDS011;13668;52.154;5.580;2023-04-08T06:56:34;9.50;;;6.68;;
24357;SDS011;13668;52.154;5.580;2023-04-08T06:59:00;7.68;;;6.88;;
24357;SDS011;13668;52.154;5.580;2023-04-08T07:01:27;7.68;;;6.60;;
24357;SDS011;13668;52.154;5.580;2023-04-08T07:03:53;7.57;;;6.88;;
24357;SDS011;13668;52.154;5.580;2023-04-08T07:06:19;6.70;;;6.10;;
24357;SDS011;13668;52.154;5.580;2023-04-08T07:08:45;7.40;;;6.40;;
24357;SDS011;13668;52.154;5.580;2023-04-08T07:11:11;6.97;;;6.28;;
24357;SDS011;13668;52.154;5.580;2023-04-08T07:13:37;6.90;;;6.20;;
24357;SDS011;13668;52.154;5.580;2023-04-08T07:16:03;6.25;;;5.75;;
24357;SDS011;13668;52.154;5.580;2023-04-08T07:18:30;7.10;;;6.22;;
24357;SDS011;13668;52.154;5.580;2023-04-08T07:20:56;6.63;;;5.90;;
24357;SDS011;13668;52.154;5.580;2023-04-08T07:23:24;5.88;;;5.35;;
24357;SDS011;13668;52.154;5.580;2023-04-08T07:25:50;6.78;;;6.18;;
24357;SDS011;13668;52.154;5.580;2023-04-08T07:28:17;6.40;;;5.80;;
24357;SDS011;13668;52.154;5.580;2023-04-08T07:30:43;6.55;;;5.20;;
24357;SDS011;13668;52.154;5.580;2023-04-08T07:33:09;7.32;;;5.50;;
24357;SDS011;13668;52.154;5.580;2023-04-08T07:35:35;5.90;;;5.40;;
24357;SDS011;13668;52.154;5.580;2023-04-08T07:38:01;5.70;;;5.10;;
24357;SDS011;13668;52.154;5.580;2023-04-08T07:40:27;5.20;;;4.80;;
24357;SDS011;13668;52.154;5.580;2023-04-08T07:42:54;5.70;;;5.10;;
24357;SDS011;13668;52.154;5.580;2023-04-08T07:45:20;5.55;;;5.05;;
24357;SDS011;13668;52.154;5.580;2023-04-08T07:47:46;6.05;;;5.55;;
24357;SDS011;13668;52.154;5.580;2023-04-08T07:50:12;6.50;;;5.90;;
24357;SDS011;13668;52.154;5.580;2023-04-08T07:52:41;6.03;;;5.53;;
24357;SDS011;13668;52.154;5.580;2023-04-08T07:55:07;5.95;;;5.35;;
24357;SDS011;13668;52.154;5.580;2023-04-08T07:57:33;6.00;;;5.43;;
24357;SDS011;13668;52.154;5.580;2023-04-08T07:59:59;6.20;;;5.65;;
24357;SDS011;13668;52.154;5.580;2023-04-08T08:02:25;5.35;;;4.85;;
24357;SDS011;13668;52.154;5.580;2023-04-08T08:04:51;5.75;;;5.25;;
24357;SDS011;13668;52.154;5.580;2023-04-08T08:07:17;6.82;;;6.05;;
24357;SDS011;13668;52.154;5.580;2023-04-08T08:09:43;6.45;;;5.85;;
24357;SDS011;13668;52.154;5.580;2023-04-08T08:12:09;5.97;;;5.45;;
24357;SDS011;13668;52.154;5.580;2023-04-08T08:14:35;5.80;;;5.40;;
24357;SDS011;13668;52.154;5.580;2023-04-08T08:17:02;6.60;;;6.00;;
24357;SDS011;13668;52.154;5.580;2023-04-08T08:19:28;5.90;;;5.40;;
24357;SDS011;13668;52.154;5.580;2023-04-08T08:21:54;5.93;;;5.40;;
24357;SDS011;13668;52.154;5.580;2023-04-08T08:24:21;6.38;;;5.88;;
24357;SDS011;13668;52.154;5.580;2023-04-08T08:26:47;7.03;;;6.32;;
24357;SDS011;13668;52.154;5.580;2023-04-08T08:29:13;6.47;;;5.88;;
24357;SDS011;13668;52.154;5.580;2023-04-08T08:31:39;6.85;;;5.93;;
24357;SDS011;13668;52.154;5.580;2023-04-08T08:34:05;6.43;;;5.80;;
24357;SDS011;13668;52.154;5.580;2023-04-08T08:36:31;7.25;;;6.55;;
24357;SDS011;13668;52.154;5.580;2023-04-08T08:38:57;6.65;;;6.15;;
24357;SDS011;13668;52.154;5.580;2023-04-08T08:41:23;8.05;;;7.25;;
24357;SDS011;13668;52.154;5.580;2023-04-08T08:43:49;8.13;;;7.10;;
24357;SDS011;13668;52.154;5.580;2023-04-08T08:46:15;7.53;;;6.90;;
24357;SDS011;13668;52.154;5.580;2023-04-08T08:48:42;7.05;;;6.45;;
24357;SDS011;13668;52.154;5.580;2023-04-08T08:51:08;8.05;;;7.35;;
24357;SDS011;13668;52.154;5.580;2023-04-08T08:53:34;7.07;;;6.47;;
24357;SDS011;13668;52.154;5.580;2023-04-08T08:56:01;7.43;;;6.68;;
24357;SDS011;13668;52.154;5.580;2023-04-08T08:58:27;7.57;;;6.75;;
24357;SDS011;13668;52.154;5.580;2023-04-08T09:00:53;7.63;;;6.93;;
24357;SDS011;13668;52.154;5.580;2023-04-08T09:03:23;7.25;;;6.57;;
24357;SDS011;13668;52.154;5.580;2023-04-08T09:05:53;7.20;;;6.57;;
24357;SDS011;13668;52.154;5.580;2023-04-08T09:08:23;6.35;;;5.82;;
24357;SDS011;13668;52.154;5.580;2023-04-08T09:10:50;7.30;;;6.60;;
24357;SDS011;13668;52.154;5.580;2023-04-08T09:13:16;7.32;;;6.68;;
24357;SDS011;13668;52.154;5.580;2023-04-08T09:16:01;7.13;;;6.43;;
24357;SDS011;13668;52.154;5.580;2023-04-08T09:18:33;7.15;;;6.43;;
24357;SDS011;13668;52.154;5.580;2023-04-08T09:21:00;7.32;;;6.63;;
24357;SDS011;13668;52.154;5.580;2023-04-08T09:23:39;7.35;;;6.30;;
24357;SDS011;13668;52.154;5.580;2023-04-08T09:26:06;6.68;;;6.05;;
24357;SDS011;13668;52.154;5.580;2023-04-08T09:28:33;7.32;;;6.72;;
24357;SDS011;13668;52.154;5.580;2023-04-08T09:30:59;6.95;;;6.35;;
24357;SDS011;13668;52.154;5.580;2023-04-08T09:33:31;6.63;;;6.10;;
24357;SDS011;13668;52.154;5.580;2023-04-08T09:35:57;5.88;;;5.38;;
24357;SDS011;13668;52.154;5.580;2023-04-08T09:38:23;8.70;;;6.85;;
24357;SDS011;13668;52.154;5.580;2023-04-08T09:40:49;6.60;;;6.00;;
24357;SDS011;13668;52.154;5.580;2023-04-08T09:43:15;7.15;;;6.55;;
24357;SDS011;13668;52.154;5.580;2023-04-08T09:45:44;7.72;;;6.80;;
24357;SDS011;13668;52.154;5.580;2023-04-08T09:48:11;6.93;;;6.20;;
24357;SDS011;13668;52.154;5.580;2023-04-08T09:50:46;6.60;;;6.05;;
24357;SDS011;13668;52.154;5.580;2023-04-08T09:53:12;6.25;;;5.75;;
24357;SDS011;13668;52.154;5.580;2023-04-08T09:55:42;6.10;;;5.60;;
24357;SDS011;13668;52.154;5.580;2023-04-08T09:58:15;7.63;;;6.85;;
24357;SDS011;13668;52.154;5.580;2023-04-08T10:00:46;6.95;;;6.25;;
24357;SDS011;13668;52.154;5.580;2023-04-08T10:03:25;6.53;;;5.93;;
24357;SDS011;13668;52.154;5.580;2023-04-08T10:05:52;14.00;;;6.93;;
24357;SDS011;13668;52.154;5.580;2023-04-08T10:08:20;8.55;;;6.57;;
24357;SDS011;13668;52.154;5.580;2023-04-08T10:10:46;7.60;;;7.00;;
24357;SDS011;13668;52.154;5.580;2023-04-08T10:13:12;10.98;;;6.88;;
24357;SDS011;13668;52.154;5.580;2023-04-08T10:15:39;7.40;;;6.70;;
24357;SDS011;13668;52.154;5.580;2023-04-08T10:23:05;7.25;;;6.55;;
24357;SDS011;13668;52.154;5.580;2023-04-08T10:27:58;7.97;;;6.53;;
24357;SDS011;13668;52.154;5.580;2023-04-08T10:32:55;6.93;;;6.20;;
24357;SDS011;13668;52.154;5.580;2023-04-08T10:36:09;8.18;;;7.05;;
24357;SDS011;13668;52.154;5.580;2023-04-08T10:38:11;7.18;;;6.55;;
24357;SDS011;13668;52.154;5.580;2023-04-08T10:40:37;7.35;;;6.65;;
24357;SDS011;13668;52.154;5.580;2023-04-08T10:43:05;8.57;;;7.32;;
24357;SDS011;13668;52.154;5.580;2023-04-08T10:45:31;7.72;;;7.03;;
24357;SDS011;13668;52.154;5.580;2023-04-08T10:48:09;8.18;;;7.38;;
24357;SDS011;13668;52.154;5.580;2023-04-08T10:50:36;8.85;;;7.50;;
24357;SDS011;13668;52.154;5.580;2023-04-08T10:53:01;7.85;;;7.05;;
24357;SDS011;13668;52.154;5.580;2023-04-08T10:55:27;8.15;;;7.28;;
24357;SDS011;13668;52.154;5.580;2023-04-08T10:57:53;7.78;;;6.95;;
24357;SDS011;13668;52.154;5.580;2023-04-08T11:00:33;11.02;;;7.60;;
24357;SDS011;13668;52.154;5.580;2023-04-08T11:03:02;8.82;;;7.38;;
24357;SDS011;13668;52.154;5.580;2023-04-08T11:05:29;7.30;;;6.60;;
24357;SDS011;13668;52.154;5.580;2023-04-08T11:07:55;8.50;;;6.85;;
24357;SDS011;13668;52.154;5.580;2023-04-08T11:10:21;8.20;;;7.20;;
24357;SDS011;13668;52.154;5.580;2023-04-08T11:12:47;8.55;;;7.20;;
24357;SDS011;13668;52.154;5.580;2023-04-08T11:15:14;7.78;;;6.75;;
24357;SDS011;13668;52.154;5.580;2023-04-08T11:17:40;7.75;;;6.40;;
24357;SDS011;13668;52.154;5.580;2023-04-08T11:20:07;8.55;;;7.55;;
24357;SDS011;13668;52.154;5.580;2023-04-08T11:22:33;9.80;;;7.38;;
24357;SDS011;13668;52.154;5.580;2023-04-08T11:25:00;7.75;;;6.93;;
24357;SDS011;13668;52.154;5.580;2023-04-08T11:27:26;9.82;;;7.10;;
24357;SDS011;13668;52.154;5.580;2023-04-08T11:29:54;8.68;;;6.68;;
24357;SDS011;13668;52.154;5.580;2023-04-08T11:32:20;9.65;;;7.13;;
24357;SDS011;13668;52.154;5.580;2023-04-08T11:34:47;7.28;;;6.07;;
24357;SDS011;13668;52.154;5.580;2023-04-08T11:37:13;9.52;;;6.90;;
24357;SDS011;13668;52.154;5.580;2023-04-08T11:39:41;8.85;;;7.47;;
24357;SDS011;13668;52.154;5.580;2023-04-08T11:42:07;11.18;;;6.50;;
24357;SDS011;13668;52.154;5.580;2023-04-08T11:44:33;8.23;;;6.38;;
24357;SDS011;13668;52.154;5.580;2023-04-08T11:46:59;10.88;;;7.00;;
24357;SDS011;13668;52.154;5.580;2023-04-08T11:49:26;9.25;;;6.35;;
24357;SDS011;13668;52.154;5.580;2023-04-08T11:51:53;8.82;;;6.72;;
24357;SDS011;13668;52.154;5.580;2023-04-08T11:54:26;10.50;;;6.60;;
24357;SDS011;13668;52.154;5.580;2023-04-08T11:56:53;6.88;;;6.05;;
24357;SDS011;13668;52.154;5.580;2023-04-08T11:59:20;9.00;;;6.78;;
24357;SDS011;13668;52.154;5.580;2023-04-08T12:01:46;7.93;;;6.30;;
24357;SDS011;13668;52.154;5.580;2023-04-08T12:04:12;9.30;;;6.53;;
24357;SDS011;13668;52.154;5.580;2023-04-08T12:06:37;6.97;;;6.25;;
24357;SDS011;13668;52.154;5.580;2023-04-08T12:09:07;8.20;;;6.22;;
24357;SDS011;13668;52.154;5.580;2023-04-08T12:11:33;9.05;;;6.65;;
24357;SDS011;13668;52.154;5.580;2023-04-08T12:13:59;8.30;;;6.07;;
24357;SDS011;13668;52.154;5.580;2023-04-08T12:16:25;7.43;;;6.25;;
24357;SDS011;13668;52.154;5.580;2023-04-08T12:18:54;7.95;;;6.53;;
24357;SDS011;13668;52.154;5.580;2023-04-08T12:21:20;6.45;;;5.82;;
24357;SDS011;13668;52.154;5.580;2023-04-08T12:23:46;6.72;;;6.10;;
24357;SDS011;13668;52.154;5.580;2023-04-08T12:26:12;5.47;;;4.97;;
24357;SDS011;13668;52.154;5.580;2023-04-08T12:28:38;6.68;;;6.07;;
24357;SDS011;13668;52.154;5.580;2023-04-08T12:31:04;6.97;;;6.28;;
24357;SDS011;13668;52.154;5.580;2023-04-08T12:33:30;8.25;;;6.50;;
24357;SDS011;13668;52.154;5.580;2023-04-08T12:35:56;6.97;;;5.95;;
24357;SDS011;13668;52.154;5.580;2023-04-08T12:38:26;6.53;;;5.93;;
24357;SDS011;13668;52.154;5.580;2023-04-08T12:40:52;6.10;;;5.50;;
24357;SDS011;13668;52.154;5.580;2023-04-08T12:43:18;6.85;;;6.10;;
24357;SDS011;13668;52.154;5.580;2023-04-08T12:45:44;7.32;;;5.45;;
24357;SDS011;13668;52.154;5.580;2023-04-08T12:48:10;6.30;;;5.50;;
24357;SDS011;13668;52.154;5.580;2023-04-08T12:50:36;5.88;;;4.57;;
24357;SDS011;13668;52.154;5.580;2023-04-08T12:53:02;6.38;;;5.47;;
24357;SDS011;13668;52.154;5.580;2023-04-08T12:55:28;5.63;;;5.10;;
24357;SDS011;13668;52.154;5.580;2023-04-08T12:57:54;7.47;;;5.72;;
24357;SDS011;13668;52.154;5.580;2023-04-08T13:00:20;5.68;;;5.05;;
24357;SDS011;13668;52.154;5.580;2023-04-08T13:02:50;4.95;;;4.45;;
24357;SDS011;13668;52.154;5.580;2023-04-08T13:05:16;4.50;;;4.10;;
24357;SDS011;13668;52.154;5.580;2023-04-08T13:07:45;5.43;;;4.80;;
24357;SDS011;13668;52.154;5.580;2023-04-08T13:10:11;4.60;;;4.20;;
24357;SDS011;13668;52.154;5.580;2023-04-08T13:12:37;5.30;;;4.80;;
24357;SDS011;13668;52.154;5.580;2023-04-08T13:15:04;5.68;;;4.82;;
24357;SDS011;13668;52.154;5.580;2023-04-08T13:17:30;5.72;;;5.22;;
24357;SDS011;13668;52.154;5.580;2023-04-08T13:19:56;5.75;;;5.03;;
24357;SDS011;13668;52.154;5.580;2023-04-08T13:22:22;6.25;;;4.97;;
24357;SDS011;13668;52.154;5.580;2023-04-08T13:24:48;6.18;;;5.47;;
24357;SDS011;13668;52.154;5.580;2023-04-08T13:27:15;8.63;;;5.90;;
24357;SDS011;13668;52.154;5.580;2023-04-08T13:29:41;7.20;;;6.38;;
24357;SDS011;13668;52.154;5.580;2023-04-08T13:32:07;6.43;;;5.82;;
24357;SDS011;13668;52.154;5.580;2023-04-08T13:34:33;6.85;;;6.25;;
24357;SDS011;13668;52.154;5.580;2023-04-08T13:36:59;6.72;;;6.00;;
24357;SDS011;13668;52.154;5.580;2023-04-08T13:39:25;7.57;;;6.78;;
24357;SDS011;13668;52.154;5.580;2023-04-08T13:41:51;6.90;;;6.20;;
24357;SDS011;13668;52.154;5.580;2023-04-08T13:44:17;6.80;;;6.10;;
24357;SDS011;13668;52.154;5.580;2023-04-08T13:46:43;7.07;;;6.40;;
24357;SDS011;13668;52.154;5.580;2023-04-08T13:49:10;9.60;;;6.85;;
24357;SDS011;13668;52.154;5.580;2023-04-08T13:51:36;7.85;;;6.53;;
24357;SDS011;13668;52.154;5.580;2023-04-08T13:54:02;7.50;;;6.20;;
24357;SDS011;13668;52.154;5.580;2023-04-08T13:56:28;7.43;;;6.43;;
24357;SDS011;13668;52.154;5.580;2023-04-08T13:58:54;8.02;;;6.78;;
24357;SDS011;13668;52.154;5.580;2023-04-08T14:01:20;6.78;;;6.07;;
24357;SDS011;13668;52.154;5.580;2023-04-08T14:03:46;6.82;;;6.13;;
24357;SDS011;13668;52.154;5.580;2023-04-08T14:06:13;7.72;;;6.88;;
24357;SDS011;13668;52.154;5.580;2023-04-08T14:08:39;7.78;;;6.97;;
24357;SDS011;13668;52.154;5.580;2023-04-08T14:11:06;7.90;;;6.90;;
24357;SDS011;13668;52.154;5.580;2023-04-08T14:13:32;9.52;;;7.07;;
24357;SDS011;13668;52.154;5.580;2023-04-08T14:15:58;7.47;;;6.43;;
24357;SDS011;13668;52.154;5.580;2023-04-08T14:18:26;8.40;;;6.43;;
24357;SDS011;13668;52.154;5.580;2023-04-08T14:20:53;9.23;;;6.68;;
24357;SDS011;13668;52.154;5.580;2023-04-08T14:23:19;7.35;;;6.65;;
24357;SDS011;13668;52.154;5.580;2023-04-08T14:25:45;6.20;;;5.60;;
24357;SDS011;13668;52.154;5.580;2023-04-08T14:28:11;12.50;;;6.95;;
24357;SDS011;13668;52.154;5.580;2023-04-08T14:30:37;6.47;;;5.88;;
24357;SDS011;13668;52.154;5.580;2023-04-08T14:33:03;7.68;;;5.47;;
24357;SDS011;13668;52.154;5.580;2023-04-08T14:35:30;7.85;;;6.65;;
24357;SDS011;13668;52.154;5.580;2023-04-08T14:37:56;7.85;;;6.35;;
24357;SDS011;13668;52.154;5.580;2023-04-08T14:40:21;7.50;;;6.13;;
24357;SDS011;13668;52.154;5.580;2023-04-08T14:42:47;7.68;;;6.97;;
24357;SDS011;13668;52.154;5.580;2023-04-08T14:45:14;6.57;;;5.90;;
24357;SDS011;13668;52.154;5.580;2023-04-08T14:47:40;8.70;;;7.10;;
24357;SDS011;13668;52.154;5.580;2023-04-08T14:50:06;7.60;;;6.88;;
24357;SDS011;13668;52.154;5.580;2023-04-08T14:52:32;6.88;;;6.25;;